Data for 11/23/2007

Time Sea-Level Adjusted Pressure Absolute Pressure Temperature Relative Humidity Dew Point   
(mb) (inHg) (mb) (inHg) (C) (F) (%) (C) (F)
00:05 1025 30.27 855 25.25 -15 5 88 -16.5 2.2
00:10 1025 30.27 854 25.22 -14.7 5.6 84 -16.8 1.8
00:15 1025 30.27 854 25.22 -14.6 5.7 82 -17.1 1.2
00:20 1025 30.27 854 25.22 -15.2 4.7 84 -17.3 0.9
00:25 1025 30.27 854 25.22 -15.7 3.7 89 -17.1 1.2
00:30 1025 30.27 854 25.22 -15.5 4 91 -16.7 2
00:35 1025 30.27 854 25.22 -14.9 5.3 91 -16 3.2
00:40 1025 30.27 854 25.22 -14.3 6.2 89 -15.8 3.5
00:45 1025 30.27 854 25.22 -14.1 6.6 86 -16 3.2
00:50 1025 30.27 854 25.22 -13.8 7.1 83 -16.1 3
00:55 1025 30.27 854 25.22 -13.9 7 83 -16.2 2.8
01:00 1025 30.27 854 25.22 -14.2 6.4 86 -16.1 2.9
01:05 1025 30.27 854 25.22 -14.3 6.3 86 -16.2 2.9
01:10 1025 30.27 854 25.22 -14.3 6.3 85 -16.3 2.7
01:15 1025 30.27 854 25.22 -14.3 6.3 85 -16.2 2.8
01:20 1025 30.27 854 25.22 -14.5 5.9 86 -16.3 2.7
01:25 1025 30.27 854 25.22 -14.4 6.1 87 -16.2 2.9
01:30 1025 30.27 854 25.22 -14.1 6.7 85 -16 3.2
01:35 1025 30.27 854 25.22 -13.7 7.3 85 -15.7 3.7
01:40 1025 30.27 854 25.22 -13.3 8.1 82 -15.7 3.8
01:45 1025 30.27 854 25.22 -13.4 7.9 84 -15.5 4
01:50 1025 30.27 854 25.22 -13.3 8 82 -15.8 3.6
01:55 1025 30.27 854 25.22 -13.6 7.4 84 -15.8 3.6
02:00 1025 30.27 854 25.22 -13.7 7.3 83 -16.1 3.1
02:05 1025 30.27 854 25.22 -13.7 7.3 80 -16.5 2.3
02:10 1025 30.27 855 25.25 -14 6.9 81 -16.6 2.1
02:15 1025 30.27 855 25.25 -14.3 6.2 85 -16.3 2.6
02:20 1025 30.27 855 25.25 -14.4 6 84 -16.5 2.3
02:25 1025 30.27 854 25.22 -14.7 5.6 85 -16.7 2
02:30 1025 30.27 855 25.25 -14.9 5.3 86 -16.7 2
02:35 1025 30.27 855 25.25 -14.8 5.3 88 -16.4 2.5
02:40 1025 30.27 855 25.25 -14.4 6.2 85 -16.3 2.7
02:45 1025 30.27 855 25.25 -14.2 6.4 83 -16.5 2.4
02:50 1025 30.27 854 25.22 -14.1 6.6 85 -16.1 3.1
02:55 1025 30.27 854 25.22 -14 6.7 86 -15.9 3.3
03:00 1025 30.27 854 25.22 -14.2 6.5 85 -16.1 2.9
03:05 1025 30.27 854 25.22 -14.4 6.2 85 -16.4 2.5
03:10 1025 30.27 854 25.22 -14.3 6.2 82 -16.7 1.9
03:15 1025 30.27 854 25.22 -14.7 5.6 82 -17 1.4
03:20 1025 30.27 854 25.22 -14.9 5.2 89 -16.3 2.7
03:25 1025 30.27 854 25.22 -14.4 6 87 -16.1 2.9
03:30 1025 30.27 854 25.22 -13.8 7.1 84 -15.9 3.3
03:35 1024 30.24 854 25.22 -13.9 7.1 85 -15.9 3.3
03:40 1024 30.24 853 25.19 -14 6.8 85 -16 3.2
03:45 1024 30.24 853 25.19 -13.9 7 86 -15.8 3.6
03:50 1024 30.24 853 25.19 -13.8 7.2 85 -15.8 3.5
03:55 1024 30.24 853 25.19 -13.8 7.1 83 -16.1 2.9
04:00 1024 30.24 853 25.19 -13.9 6.9 84 -16.1 2.9
04:05 1024 30.24 853 25.19 -14.1 6.7 85 -16.1 3.1
04:10 1024 30.24 853 25.19 -14 6.9 86 -15.9 3.5
04:15 1024 30.24 853 25.19 -13.6 7.5 83 -15.9 3.4
04:20 1024 30.24 853 25.19 -13.7 7.4 84 -15.9 3.4
04:25 1024 30.24 853 25.19 -13.9 7 84 -16 3.2
04:30 1024 30.24 853 25.19 -14 6.7 85 -16 3.3
04:35 1024 30.24 853 25.19 -13.7 7.3 85 -15.8 3.6
04:40 1024 30.24 853 25.19 -13.5 7.8 85 -15.5 4.1
04:45 1024 30.24 853 25.19 -13.3 8.1 85 -15.3 4.4
04:50 1024 30.24 853 25.19 -13.1 8.5 82 -15.5 4.2
04:55 1024 30.24 853 25.19 -13.1 8.4 81 -15.7 3.8
05:00 1024 30.24 853 25.19 -13.2 8.2 82 -15.6 3.9
05:05 1024 30.24 853 25.19 -13.4 7.8 83 -15.8 3.6
05:10 1024 30.24 853 25.19 -13.8 7.3 84 -16 3.3
05:15 1024 30.24 853 25.19 -14 6.8 85 -16 3.2
05:20 1024 30.24 853 25.19 -14 6.8 85 -16 3.2
05:25 1024 30.24 853 25.19 -13.9 7 83 -16.2 2.8
05:30 1024 30.24 853 25.19 -14 6.9 84 -16.1 3
05:35 1024 30.24 853 25.19 -13.8 7.1 85 -15.9 3.5
05:40 1024 30.24 853 25.19 -13.5 7.6 84 -15.7 3.8
05:45 1024 30.24 853 25.19 -13.3 8.1 82 -15.7 3.7
05:50 1024 30.24 853 25.19 -13.2 8.2 81 -15.9 3.5
05:55 1024 30.24 853 25.19 -13.4 8 82 -15.8 3.5
06:00 1024 30.24 853 25.19 -13.5 7.7 82 -16 3.2
06:05 1024 30.24 853 25.19 -13.7 7.3 82 -16.2 2.9
06:10 1024 30.24 853 25.19 -14 6.7 83 -16.3 2.7
06:15 1024 30.24 853 25.19 -14.4 6.2 85 -16.4 2.5
06:20 1024 30.24 853 25.19 -14.4 6 85 -16.4 2.4
06:25 1024 30.24 853 25.19 -14.4 6.1 85 -16.4 2.4
06:30 1024 30.24 853 25.19 -14.4 6 84 -16.5 2.2
06:35 1024 30.24 853 25.19 -14.5 5.9 85 -16.5 2.3
06:40 1024 30.24 853 25.19 -14.3 6.2 85 -16.3 2.7
06:45 1024 30.24 853 25.19 -14.1 6.7 85 -16.1 3
06:50 1024 30.24 853 25.19 -14 6.9 84 -16.1 3
06:55 1024 30.24 853 25.19 -13.9 6.9 84 -16.1 3
07:00 1024 30.24 853 25.19 -13.9 7 83 -16.1 2.9
07:05 1024 30.24 853 25.19 -13.9 6.9 81 -16.5 2.4
07:10 1024 30.24 853 25.19 -14.1 6.7 82 -16.5 2.3
07:15 1024 30.24 853 25.19 -14.5 5.9 84 -16.6 2.1
07:20 1024 30.24 853 25.19 -14.9 5.1 88 -16.5 2.3
07:25 1024 30.24 853 25.19 -14.7 5.6 87 -16.3 2.6
07:30 1024 30.24 853 25.19 -14.3 6.3 86 -16.2 2.9
07:35 1024 30.24 853 25.19 -14.2 6.4 87 -16 3.2
07:40 1024 30.24 853 25.19 -14.1 6.7 85 -16 3.2
07:45 1024 30.24 853 25.19 -14.1 6.6 84 -16.2 2.8
07:50 1024 30.24 853 25.19 -14.3 6.3 85 -16.3 2.7
07:55 1024 30.24 853 25.19 -14.3 6.2 84 -16.4 2.4
08:00 1024 30.24 853 25.19 -14.5 5.9 86 -16.3 2.6
08:05 1024 30.24 853 25.19 -14.5 6 86 -16.3 2.6
08:10 1024 30.24 854 25.22 -14.6 5.8 87 -16.3 2.6
08:15 1024 30.24 854 25.22 -14.7 5.6 86 -16.5 2.2
08:20 1024 30.24 853 25.19 -14.8 5.3 88 -16.4 2.5
08:25 1024 30.24 854 25.22 -14.7 5.6 84 -16.8 1.8
08:30 1024 30.24 854 25.22 -14.8 5.5 84 -16.9 1.6
08:35 1024 30.24 854 25.22 -14.6 5.8 83 -16.8 1.7
08:40 1025 30.27 854 25.22 -14.1 6.6 82 -16.5 2.3
08:45 1025 30.27 854 25.22 -13.8 7.2 83 -16.1 3
08:50 1025 30.27 854 25.22 -13.1 8.4 79 -15.9 3.3
08:55 1025 30.27 854 25.22 -12.4 9.7 76 -15.8 3.6
09:00 1025 30.27 854 25.22 -11.9 10.6 74 -15.6 4
09:05 1025 30.27 854 25.22 -12 10.3 75 -15.7 3.8
09:10 1025 30.27 854 25.22 -11.4 11.4 72 -15.6 4
09:15 1025 30.27 854 25.22 -11 12.1 72 -15.1 4.7
09:20 1025 30.27 854 25.22 -11.4 11.5 75 -15 5.1
09:25 1025 30.27 854 25.22 -11.1 12 72 -15.2 4.7
09:30 1025 30.27 854 25.22 -10.1 13.9 69 -14.7 5.5
09:35 1025 30.27 854 25.22 -9.9 14.1 68 -14.8 5.4
09:40 1025 30.27 854 25.22 -10.3 13.5 69 -14.9 5.2
09:45 1025 30.27 854 25.22 -10.8 12.6 72 -14.9 5.2
09:50 1025 30.27 854 25.22 -10.7 12.7 71 -15 5
09:55 1025 30.27 854 25.22 -10.6 13 70 -15 5
10:00 1025 30.27 854 25.22 -10.5 13.2 70 -15 5
10:05 1025 30.27 854 25.22 -10.3 13.6 68 -15 5
10:10 1025 30.27 854 25.22 -9.3 15.2 64 -15 5
10:15 1025 30.27 854 25.22 -8.5 16.7 61 -14.7 5.6
10:20 1025 30.27 854 25.22 -8.4 17 63 -14.2 6.5
10:25 1025 30.27 854 25.22 -8.9 16 67 -13.9 7
10:30 1025 30.27 854 25.22 -10 14 69 -14.6 5.6
10:35 1025 30.27 854 25.22 -9.8 14.4 67 -14.8 5.3
10:40 1025 30.27 854 25.22 -9.3 15.3 66 -14.6 5.8
10:45 1025 30.27 854 25.22 -9.3 15.3 66 -14.6 5.8
10:50 1025 30.27 854 25.22 -8.9 16 65 -14.4 6.1
10:55 1025 30.27 854 25.22 -9.3 15.3 66 -14.6 5.8
11:00 1025 30.27 854 25.22 -9.3 15.2 65 -14.6 5.6
11:05 1025 30.27 854 25.22 -9.2 15.5 63 -14.9 5.2
11:10 1024 30.24 854 25.22 -8.9 15.9 63 -14.7 5.5
11:15 1024 30.24 854 25.22 -8.4 16.9 59 -15.1 4.9
11:20 1024 30.24 853 25.19 -7.8 18 60 -14.3 6.2
11:25 1024 30.24 853 25.19 -7.3 18.8 57 -14.4 6
11:30 1024 30.24 853 25.19 -7.6 18.4 58 -14.5 6
11:35 1024 30.24 853 25.19 -7.7 18.2 60 -14.3 6.3
11:40 1024 30.24 853 25.19 -7 19.5 57 -14.1 6.6
11:45 1024 30.24 853 25.19 -6.8 19.8 56 -14.2 6.4
11:50 1024 30.24 853 25.19 -6.8 19.8 56 -14.1 6.6
11:55 1024 30.24 853 25.19 -6.8 19.8 56 -14.2 6.5
12:00 1024 30.24 853 25.19 -7.2 19.1 57 -14.2 6.4
12:05 1024 30.24 853 25.19 -7.1 19.3 57 -14.3 6.3
12:10 1024 30.24 853 25.19 -6.8 19.7 56 -14.2 6.4
12:15 1024 30.24 853 25.19 -6.5 20.3 56 -14 6.8
12:20 1024 30.24 853 25.19 -6.6 20.1 56 -14 6.8
12:25 1024 30.24 853 25.19 -6.7 20 56 -14 6.8
12:30 1023 30.21 853 25.19 -6.4 20.5 56 -13.9 7.1
12:35 1024 30.24 853 25.19 -6.2 20.8 57 -13.4 7.9
12:40 1024 30.24 853 25.19 -6 21.2 55 -13.6 7.5
12:45 1023 30.21 853 25.19 -6.5 20.3 57 -13.6 7.6
12:50 1023 30.21 853 25.19 -6.8 19.7 57 -14 6.9
12:55 1023 30.21 853 25.19 -7.1 19.1 59 -13.8 7.1
13:00 1023 30.21 853 25.19 -7.3 19 59 -13.9 7
13:05 1023 30.21 853 25.19 -7.4 18.7 59 -14 6.8
13:10 1023 30.21 852 25.16 -7.4 18.7 59 -14.1 6.7
13:15 1023 30.21 852 25.16 -7.2 19.1 60 -13.7 7.3
13:20 1023 30.21 852 25.16 -7 19.3 58 -14 6.8
13:25 1023 30.21 852 25.16 -6.5 20.3 56 -14 6.8
13:30 1023 30.21 852 25.16 -6.3 20.7 57 -13.6 7.5
13:35 1023 30.21 852 25.16 -6.1 21.1 56 -13.5 7.6
13:40 1023 30.21 852 25.16 -6.2 20.9 56 -13.6 7.5
13:45 1023 30.21 852 25.16 -6.2 20.8 56 -13.5 7.7
13:50 1023 30.21 852 25.16 -5.8 21.5 53 -13.8 7.1
13:55 1023 30.21 852 25.16 -5.5 22.1 53 -13.7 7.3
14:00 1023 30.21 852 25.16 -5.7 21.7 55 -13.4 7.9
14:05 1023 30.21 852 25.16 -5.3 22.5 53 -13.4 8
14:10 1023 30.21 852 25.16 -5.2 22.7 54 -13.1 8.5
14:15 1023 30.21 852 25.16 -5.9 21.5 55 -13.4 7.8
14:20 1023 30.21 852 25.16 -5.9 21.4 56 -13.4 7.9
14:25 1022 30.18 852 25.16 -5.7 21.7 56 -13.2 8.3
14:30 1022 30.18 852 25.16 -5.3 22.5 54 -13.2 8.3
14:35 1022 30.18 852 25.16 -5.4 22.3 55 -13.1 8.5
14:40 1022 30.18 852 25.16 -5.1 22.9 54 -13.1 8.5
14:45 1022 30.18 851 25.13 -4.9 23.3 53 -13 8.5
14:50 1022 30.18 851 25.13 -4.6 23.7 52 -12.9 8.7
14:55 1022 30.18 851 25.13 -5 22.9 54 -13 8.7
15:00 1022 30.18 851 25.13 -5.3 22.5 55 -12.9 8.8
15:05 1022 30.18 851 25.13 -5.3 22.5 54 -13.1 8.4
15:10 1022 30.18 851 25.13 -5.3 22.4 54 -13.4 8
15:15 1022 30.18 851 25.13 -5.3 22.5 54 -13.1 8.4
15:20 1022 30.18 851 25.13 -5.2 22.7 54 -13.2 8.2
15:25 1022 30.18 851 25.13 -5.4 22.3 53 -13.4 7.8
15:30 1022 30.18 851 25.13 -5.7 21.8 54 -13.6 7.5
15:35 1022 30.18 851 25.13 -6.1 21 56 -13.5 7.7
15:40 1022 30.18 851 25.13 -6.2 20.8 57 -13.4 7.8
15:45 1022 30.18 851 25.13 -6.5 20.4 58 -13.5 7.7
15:50 1022 30.18 851 25.13 -6.2 20.8 56 -13.6 7.5
15:55 1022 30.18 851 25.13 -6.2 20.9 56 -13.5 7.6
16:00 1022 30.18 851 25.13 -6.2 20.9 56 -13.5 7.6
16:05 1022 30.18 851 25.13 -6.2 20.8 57 -13.5 7.8
16:10 1022 30.18 851 25.13 -6.6 20.2 59 -13.3 8.1
16:15 1022 30.18 851 25.13 -6.6 20.1 59 -13.3 8
16:20 1022 30.18 851 25.13 -7 19.4 61 -13.3 8.1
16:25 1022 30.18 851 25.13 -7.6 18.3 65 -13.2 8.3
16:30 1022 30.18 851 25.13 -8.2 17.2 67 -13.4 7.9
16:35 1021 30.15 851 25.13 -8.6 16.6 68 -13.5 7.8
16:40 1021 30.15 851 25.13 -9.1 15.7 71 -13.5 7.8
16:45 1021 30.15 851 25.13 -9.6 14.7 73 -13.6 7.5
16:50 1021 30.15 851 25.13 -9.8 14.3 74 -13.6 7.5
16:55 1021 30.15 851 25.13 -10 14 75 -13.7 7.4
17:00 1021 30.15 851 25.13 -9.7 14.5 73 -13.7 7.4
17:05 1021 30.15 851 25.13 -9.6 14.7 73 -13.6 7.6
17:10 1021 30.15 851 25.13 -9.7 14.6 73 -13.6 7.4
17:15 1021 30.15 851 25.13 -9.8 14.5 74 -13.6 7.5
17:20 1021 30.15 851 25.13 -9.9 14.3 73 -13.8 7.1
17:25 1021 30.15 851 25.13 -10 13.9 75 -13.7 7.3
17:30 1021 30.15 851 25.13 -10.2 13.6 75 -13.8 7.2
17:35 1021 30.15 851 25.13 -10.6 13 77 -13.9 7
17:40 1021 30.15 851 25.13 -10.9 12.4 78 -14 6.8
17:45 1021 30.15 851 25.13 -10.9 12.4 77 -14.1 6.6
17:50 1021 30.15 851 25.13 -11 12.1 78 -14.2 6.4
17:55 1021 30.15 851 25.13 -11.1 11.9 78 -14.2 6.4
18:00 1021 30.15 851 25.13 -11.2 11.9 78 -14.3 6.3
18:05 1021 30.15 851 25.13 -11.2 11.9 79 -14.2 6.5
18:10 1021 30.15 851 25.13 -11.2 11.8 79 -14.2 6.5
18:15 1021 30.15 851 25.13 -11.4 11.5 80 -14.2 6.5
18:20 1021 30.15 851 25.13 -11.5 11.3 80 -14.3 6.3
18:25 1021 30.15 851 25.13 -11.5 11.3 80 -14.4 6.2
18:30 1021 30.15 851 25.13 -11.5 11.3 80 -14.3 6.3
18:35 1021 30.15 851 25.13 -11.6 11.1 80 -14.4 6
18:40 1021 30.15 851 25.13 -11.6 11.2 79 -14.5 5.9
18:45 1021 30.15 851 25.13 -11.6 11.1 79 -14.5 5.9
18:50 1021 30.15 851 25.13 -11.7 11 79 -14.6 5.7
18:55 1021 30.15 851 25.13 -11.9 10.6 81 -14.6 5.8
19:00 1021 30.15 851 25.13 -12.1 10.2 82 -14.6 5.7
19:05 1021 30.15 851 25.13 -12.3 9.9 84 -14.4 6
19:10 1021 30.15 851 25.13 -12.5 9.5 84 -14.7 5.6
19:15 1021 30.15 851 25.13 -12.6 9.3 84 -14.8 5.4
19:20 1021 30.15 851 25.13 -12.6 9.4 83 -15 5.1
19:25 1021 30.15 850 25.1 -12.3 10 85 -14.3 6.3
19:30 1021 30.15 850 25.1 -11.8 10.7 83 -14.2 6.4
19:35 1021 30.15 850 25.1 -12 10.4 84 -14.1 6.5
19:40 1021 30.15 850 25.1 -12 10.3 84 -14.2 6.5
19:45 1021 30.15 850 25.1 -12 10.4 82 -14.4 6.1
19:50 1021 30.15 850 25.1 -12.2 10.1 84 -14.4 6
19:55 1021 30.15 850 25.1 -12.2 10 82 -14.7 5.5
20:00 1021 30.15 850 25.1 -12.1 10.2 82 -14.6 5.7
20:05 1021 30.15 850 25.1 -12.2 10 84 -14.5 6
20:10 1021 30.15 850 25.1 -12.1 10.3 82 -14.6 5.7
20:15 1021 30.15 850 25.1 -12.2 10.1 83 -14.5 5.9
20:20 1021 30.15 850 25.1 -12.2 10.1 84 -14.3 6.3
20:25 1021 30.15 850 25.1 -12.1 10.2 83 -14.4 6
20:30 1021 30.15 850 25.1 -12.3 9.8 84 -14.6 5.8
20:35 1021 30.15 850 25.1 -12.6 9.3 86 -14.5 5.8
20:40 1021 30.15 850 25.1 -12.6 9.3 84 -14.7 5.5
20:45 1021 30.15 850 25.1 -12.5 9.4 84 -14.7 5.6
20:50 1021 30.15 850 25.1 -12.7 9.2 85 -14.8 5.4
20:55 1021 30.15 850 25.1 -12.5 9.5 84 -14.7 5.6
21:00 1020 30.12 850 25.1 -12.2 10 82 -14.6 5.7
21:05 1020 30.12 850 25.1 -12.2 10 83 -14.6 5.8
21:10 1020 30.12 850 25.1 -12.3 9.8 83 -14.6 5.7
21:15 1020 30.12 850 25.1 -12.3 9.8 82 -14.7 5.5
21:20 1020 30.12 850 25.1 -12.4 9.6 83 -14.7 5.5
21:25 1020 30.12 850 25.1 -12.4 9.7 82 -14.8 5.3
21:30 1020 30.12 849 25.07 -12.4 9.7 86 -14.2 6.4
21:35 1020 30.12 849 25.07 -12 10.5 84 -14.2 6.4
21:40 1020 30.12 849 25.07 -11.1 11.9 81 -13.7 7.3
21:45 1020 30.12 849 25.07 -10.7 12.7 80 -13.5 7.7
21:50 1020 30.12 849 25.07 -10.8 12.7 79 -13.7 7.3
21:55 1020 30.12 849 25.07 -11 12.2 81 -13.6 7.5
22:00 1020 30.12 849 25.07 -11.2 11.9 80 -14 6.8
22:05 1020 30.12 849 25.07 -11.6 11.2 83 -13.9 6.9
22:10 1020 30.12 849 25.07 -11.9 10.7 86 -13.8 7.2
22:15 1020 30.12 849 25.07 -11.9 10.6 84 -14 6.8
22:20 1020 30.12 849 25.07 -11.9 10.7 86 -13.8 7.2
22:25 1020 30.12 849 25.07 -11.5 11.4 84 -13.6 7.5
22:30 1020 30.12 849 25.07 -11.4 11.5 83 -13.8 7.2
22:35 1020 30.12 849 25.07 -11.3 11.7 81 -13.9 7
22:40 1020 30.12 849 25.07 -11.4 11.4 82 -14 6.9
22:45 1020 30.12 849 25.07 -11.3 11.7 82 -13.8 7.1
22:50 1020 30.12 849 25.07 -11.2 11.9 82 -13.7 7.4
22:55 1020 30.12 849 25.07 -11.2 11.8 85 -13.3 8
23:00 1020 30.12 849 25.07 -11.2 11.8 83 -13.5 7.7
23:05 1020 30.12 849 25.07 -10.9 12.4 81 -13.5 7.7
23:10 1020 30.12 849 25.07 -10.6 12.8 79 -13.6 7.6
23:15 1020 30.12 849 25.07 -10.7 12.8 81 -13.4 7.9
23:20 1020 30.12 849 25.07 -10.6 12.8 79 -13.6 7.5
23:25 1020 30.12 849 25.07 -10.8 12.6 80 -13.6 7.4
23:30 1020 30.12 849 25.07 -11.1 12.1 82 -13.6 7.6
23:35 1020 30.12 849 25.07 -10.8 12.5 81 -13.4 7.9
23:40 1020 30.12 849 25.07 -10.5 13 80 -13.3 8.1
23:45 1020 30.12 849 25.07 -10.8 12.7 79 -13.8 7.2
23:50 1020 30.12 849 25.07 -10.9 12.4 78 -14 6.7
23:55 1019 30.09 849 25.07 -11.5 11.3 79 -14.5 5.9
24:00 1019 30.09 849 25.07 -11.2 11.8 77 -14.5 5.9